Аэропорт: Борисполь. Киев

ICAO: UKBB

METAR:
2019-07-23 18:30:00
UKBB 231830Z 35003MPS CAVOK 17/14 Q1013 R88/CLRD// NOSIG
METAR:
2019-07-23 17:00:00
TAF UKBB 231700Z 2318/2418 30003G08MPS 9999 BKN020 TEMPO 2318/2406 34006G11MPS 2100 -SHRA BR BKN006 SCT015CB BECMG 2406/2408 33006G11MPS TEMPO 2408/2418 VRB09G16MPS 1400 TSRA SQ BKN006 SCT015CB